Terminal Aerodrome Forecast
Issued by NWS Cleveland, OH

Home | Current Version | Previous Version | Graphics & Text | Print | Product List | Glossary Off
Versions: 1 2 3 4 5 6 7 8 9 10 11 12 13 14 15 16

000
FTUS41 KCLE 181732
TAFMFD
TAF
KMFD 181732Z 1818/1918 22014G24KT P6SM SKC
     FM190000 23012KT P6SM FEW250 WS020/25040KT
     FM191500 22010KT P6SM FEW250=

USA.gov is the U.S. government's official web portal to all federal, state and local government web resources and services.